Syracuse, Indiana
Current Conditions -  °F | °C
As of 9:53 AM on Thursday 23 Oct 2014 (Local Time) from KGSH Reporting Station
Moderate Fog Moderate Fog  
Wind Chill: 35°   Ceiling: 200
Heat Index: 35°   Visibility: 0.25mi
Dew Point: 35°   Wind: 0mph
Humidity: 100%   Direction: NA
Pressure: 30.26"   Gusts: NA
Location:  41.43°N, 85.75°W
Report Text: KGSH 231353Z AUTO 00000KT 1/4SM FG VV002 02/02 A3026 RMK AO2 SLP253 I1001 T00170017
Loading
Personal Weather Stations






























Interactive Weather Map
Tropical Storm Tracking
New forecast layout! Learn more

10-Day Weather Forecast

Advertisements
Track Severe Weather on mobile